Portada
METAR-TAF:

METAR-TAF

Aeroports :

Fairfield County Airport

Lancaster, Ohio, Estats Units d'Amèrica

latitud: 39-45-26N, longitud: 082-39-48W, altitud: 264 m

Observació

L'informe es va fer fa 37 minuts, a les 00:53 UTC
Vent calma
Temperatura 17°C
Humitat 94%
Pressió 1012 hPa
Visibilitat: 16.1 km
Núvols disperses a una alçada de 7000 ft

METAR: KLHQ 180053Z AUTO 00000KT 10SM SCT070 17/16 A2987 RMK AO2 LTG DSNT SE AND S SLP113 T01670156

Hora: 21:30 (01:30 UTC)


TAF: manca

Observacions i pronòstics meteorològics de més de 4000 aeroports (METAR i TAF).

Les estacions disponibles són els punts grocs i vermells al mapa.

Posi el ratolí al punt desitjat per veure el nom de l'estació.

Feu clic per veure les observacions i els pronòstics meteorològics.

Per canviar el mapa: feu clic els botons verds amb una creu de color negre per apropar; al botó verd amb un guió per allunyar la imatge; o en les fletxes verdes per a mapes adjacents.


METAR-TAF: